createdAt,value
2019-04-16T00:02:20.344Z,16.70
2019-04-16T00:04:43.033Z,17.48
2019-04-16T00:07:05.825Z,18.35
2019-04-16T00:09:19.648Z,18.32
2019-04-16T00:11:51.928Z,20.40
2019-04-16T00:14:05.664Z,19.70
2019-04-16T00:16:12.980Z,21.25
2019-04-16T00:18:19.486Z,18.95
2019-04-16T00:20:24.696Z,20.60
2019-04-16T00:22:39.000Z,20.40
2019-04-16T00:24:47.318Z,20.05
2019-04-16T00:26:59.314Z,21.30
2019-04-16T00:29:03.219Z,21.80
2019-04-16T00:31:08.442Z,21.42
2019-04-16T00:33:13.568Z,22.77
2019-04-16T00:35:18.632Z,21.97
2019-04-16T00:37:23.764Z,21.07
2019-04-16T00:39:28.774Z,21.33
2019-04-16T00:41:33.804Z,21.70
2019-04-16T00:43:38.818Z,22.82
2019-04-16T00:45:44.159Z,21.75
2019-04-16T00:47:51.457Z,21.27
2019-04-16T00:49:58.787Z,22.20
2019-04-16T00:52:05.902Z,20.92
2019-04-16T00:54:11.205Z,21.80
2019-04-16T00:56:16.879Z,22.85
2019-04-16T00:58:21.972Z,22.07
2019-04-16T01:00:27.765Z,22.30
2019-04-16T01:02:33.785Z,22.13
2019-04-16T01:04:38.817Z,22.45
2019-04-16T01:06:43.909Z,21.93
2019-04-16T01:08:54.852Z,21.75
2019-04-16T01:10:55.737Z,22.02
2019-04-16T01:13:00.759Z,22.13
2019-04-16T01:15:06.076Z,22.45
2019-04-16T01:17:11.912Z,21.65
2019-04-16T01:19:16.953Z,22.00
2019-04-16T01:21:21.966Z,22.30
2019-04-16T01:23:27.000Z,22.27
2019-04-16T01:25:32.053Z,21.75
2019-04-16T01:27:44.736Z,23.02
2019-04-16T01:29:49.811Z,22.42
2019-04-16T01:32:12.801Z,22.02
2019-04-16T01:34:26.961Z,22.20
2019-04-16T01:36:39.168Z,21.95
2019-04-16T01:39:07.525Z,22.73
2019-04-16T01:41:04.074Z,21.40
2019-04-16T01:43:09.146Z,21.10
2019-04-16T01:45:14.188Z,21.87
2019-04-16T01:47:19.276Z,21.48
2019-04-16T01:49:24.353Z,21.73
2019-04-16T01:51:29.385Z,21.23
2019-04-16T01:53:34.418Z,20.85
2019-04-16T01:55:42.311Z,21.07
2019-04-16T01:57:46.245Z,21.07
2019-04-16T01:59:51.284Z,20.52
2019-04-16T02:01:57.436Z,21.37
2019-04-16T02:04:02.505Z,21.48
2019-04-16T02:06:07.699Z,20.65
2019-04-16T02:08:12.716Z,20.82
2019-04-16T02:10:17.746Z,20.37
2019-04-16T02:12:22.756Z,20.05
2019-04-16T02:14:27.787Z,19.80
2019-04-16T02:16:32.800Z,20.40
2019-04-16T02:18:37.839Z,19.92
2019-04-16T02:20:42.868Z,20.08
2019-04-16T02:22:47.910Z,20.15
2019-04-16T02:24:52.926Z,19.98
2019-04-16T02:26:57.992Z,19.55
2019-04-16T02:29:03.187Z,18.37
2019-04-16T02:31:13.819Z,19.73
2019-04-16T02:33:14.937Z,19.32
2019-04-16T02:35:19.975Z,20.05
2019-04-16T02:37:24.987Z,19.27
2019-04-16T02:39:46.938Z,19.65
2019-04-16T02:41:36.802Z,19.45
2019-04-16T02:43:41.857Z,18.75
2019-04-16T02:45:46.873Z,18.77
2019-04-16T02:47:51.885Z,19.02
2019-04-16T02:49:58.021Z,18.40
2019-04-16T02:52:15.239Z,18.20
2019-04-16T02:54:20.144Z,18.98
2019-04-16T02:56:41.699Z,18.48
2019-04-16T02:58:50.091Z,16.67
2019-04-16T03:01:05.664Z,17.62
2019-04-16T03:03:14.236Z,18.07
2019-04-16T03:05:26.490Z,17.65
2019-04-16T03:07:33.388Z,17.87
2019-04-16T03:09:40.267Z,17.02
2019-04-16T03:11:45.547Z,17.10
2019-04-16T03:13:52.877Z,16.67
2019-04-16T03:16:15.818Z,17.23
2019-04-16T03:18:24.509Z,16.82
2019-04-16T03:20:29.558Z,17.20
2019-04-16T03:22:34.701Z,17.20
2019-04-16T03:24:40.196Z,16.65
2019-04-16T03:26:47.637Z,15.30
2019-04-16T03:28:55.456Z,16.85
2019-04-16T03:30:59.458Z,16.20
2019-04-16T03:33:10.288Z,16.27
2019-04-16T03:35:11.236Z,15.80
2019-04-16T03:37:16.278Z,15.75
2019-04-16T03:39:21.297Z,16.32
2019-04-16T03:41:26.309Z,15.55
2019-04-16T03:43:32.784Z,15.43
2019-04-16T03:45:40.443Z,14.47
2019-04-16T03:47:44.878Z,15.08
2019-04-16T03:49:49.916Z,15.40
2019-04-16T03:51:54.939Z,14.53
2019-04-16T03:53:59.970Z,15.40
2019-04-16T03:56:05.060Z,15.30
2019-04-16T03:58:10.076Z,15.30
2019-04-16T04:00:15.323Z,14.73
2019-04-16T04:02:22.861Z,13.98
2019-04-16T04:04:29.250Z,14.03
2019-04-16T04:06:36.521Z,14.07
2019-04-16T04:08:40.720Z,14.53
2019-04-16T04:10:45.906Z,14.18
2019-04-16T04:12:50.920Z,14.73
2019-04-16T04:14:55.954Z,14.85
2019-04-16T04:17:05.220Z,14.07
2019-04-16T04:19:08.022Z,13.80
2019-04-16T04:21:12.999Z,14.30
2019-04-16T04:23:18.121Z,13.20
2019-04-16T04:25:23.153Z,14.28
2019-04-16T04:27:28.191Z,13.35
2019-04-16T04:29:33.241Z,13.83
2019-04-16T04:31:38.284Z,13.40
2019-04-16T04:33:43.783Z,12.53
2019-04-16T04:35:51.018Z,13.43
2019-04-16T04:37:55.708Z,12.80
2019-04-16T04:40:00.756Z,13.00
2019-04-16T04:42:05.957Z,13.20
2019-04-16T04:44:11.122Z,13.75
2019-04-16T04:46:16.243Z,12.53
2019-04-16T04:48:24.129Z,12.80
2019-04-16T04:50:28.055Z,12.47
2019-04-16T04:52:33.064Z,12.53
2019-04-16T04:54:38.110Z,12.30
2019-04-16T04:56:43.118Z,12.40
2019-04-16T04:58:48.150Z,12.50
2019-04-16T05:00:53.480Z,12.55
2019-04-16T05:02:58.514Z,12.88
2019-04-16T05:05:16.716Z,11.63
2019-04-16T05:07:21.759Z,11.50
2019-04-16T05:09:29.334Z,12.60
2019-04-16T05:11:34.040Z,11.80
2019-04-16T05:13:39.040Z,11.50
2019-04-16T05:15:44.080Z,11.25
2019-04-16T05:17:49.133Z,12.03
2019-04-16T05:19:54.192Z,11.93
2019-04-16T05:21:59.276Z,11.85
2019-04-16T05:24:04.296Z,11.60
2019-04-16T05:26:09.910Z,11.95
2019-04-16T05:28:15.182Z,11.57
2019-04-16T05:30:21.705Z,11.33
2019-04-16T05:32:32.912Z,11.22
2019-04-16T05:34:34.619Z,12.03
2019-04-16T05:36:46.223Z,10.72
2019-04-16T05:38:47.381Z,10.85
2019-04-16T05:40:52.411Z,11.33
2019-04-16T05:42:58.958Z,10.93
2019-04-16T05:45:05.527Z,11.12
2019-04-16T05:47:11.481Z,10.95
2019-04-16T05:49:16.535Z,10.40
2019-04-16T05:51:21.590Z,10.43
2019-04-16T05:53:26.568Z,11.22
2019-04-16T05:55:57.483Z,11.10
2019-04-16T05:58:02.692Z,10.90
2019-04-16T06:00:10.442Z,10.85
2019-04-16T06:02:19.948Z,11.22
2019-04-16T06:04:25.724Z,11.50
2019-04-16T06:06:31.848Z,10.90
2019-04-16T06:08:40.769Z,11.10
2019-04-16T06:10:49.950Z,10.82
2019-04-16T06:13:19.285Z,10.78
2019-04-16T06:15:37.476Z,11.50
2019-04-16T06:18:07.794Z,10.60
2019-04-16T06:20:28.801Z,11.85
2019-04-16T06:22:43.316Z,11.18
2019-04-16T06:25:16.281Z,11.63
2019-04-16T06:27:43.210Z,10.63
2019-04-16T06:30:05.829Z,10.93
2019-04-16T06:32:35.965Z,11.00
2019-04-16T06:34:58.609Z,11.28
2019-04-16T06:37:26.343Z,11.12
2019-04-16T06:40:04.720Z,11.15
2019-04-16T06:42:29.181Z,11.38
2019-04-16T06:44:39.870Z,11.12
2019-04-16T06:46:51.353Z,11.50
2019-04-16T06:49:17.305Z,11.90
2019-04-16T06:51:36.709Z,11.35
2019-04-16T06:53:57.868Z,12.28
2019-04-16T06:56:25.076Z,11.55
2019-04-16T06:58:57.186Z,12.15
2019-04-16T07:01:16.367Z,11.38
2019-04-16T07:03:39.102Z,11.73
2019-04-16T07:06:03.988Z,11.53
2019-04-16T07:08:39.301Z,11.85
2019-04-16T07:10:53.891Z,11.70
2019-04-16T07:12:58.900Z,12.55
2019-04-16T07:15:04.409Z,12.10
2019-04-16T07:17:11.093Z,11.35
2019-04-16T07:19:17.847Z,12.05
2019-04-16T07:21:22.958Z,11.55
2019-04-16T07:23:28.016Z,11.68
2019-04-16T07:25:39.737Z,11.55
2019-04-16T07:27:57.443Z,10.98
2019-04-16T07:30:08.861Z,12.00
2019-04-16T07:32:41.886Z,11.75
2019-04-16T07:35:05.856Z,11.40
2019-04-16T07:37:32.841Z,11.25
2019-04-16T07:39:56.963Z,11.70
2019-04-16T07:42:11.755Z,12.13
2019-04-16T07:44:20.937Z,12.15
2019-04-16T07:46:34.972Z,11.75
2019-04-16T07:49:03.470Z,11.80
2019-04-16T07:51:39.827Z,11.38
2019-04-16T07:54:03.783Z,11.55
2019-04-16T07:56:14.573Z,11.40
2019-04-16T07:58:20.720Z,11.95
2019-04-16T08:00:25.752Z,11.25
2019-04-16T08:02:30.769Z,11.22
2019-04-16T08:04:36.436Z,11.25
2019-04-16T08:06:46.290Z,11.00
2019-04-16T08:08:48.362Z,10.90
2019-04-16T08:10:53.394Z,11.45
2019-04-16T08:13:06.549Z,11.40
2019-04-16T08:15:14.554Z,11.00
2019-04-16T08:17:18.378Z,11.38
2019-04-16T08:19:36.177Z,10.90
2019-04-16T08:21:30.181Z,11.03
2019-04-16T08:23:39.253Z,11.95
2019-04-16T08:25:44.573Z,11.10
2019-04-16T08:27:50.746Z,11.28
2019-04-16T08:30:01.859Z,11.00
2019-04-16T08:32:03.467Z,11.68
2019-04-16T08:34:08.558Z,10.30
2019-04-16T08:36:13.713Z,10.98
2019-04-16T08:38:18.758Z,10.93
2019-04-16T08:40:23.981Z,9.83
2019-04-16T08:42:43.900Z,10.58
2019-04-16T08:44:37.853Z,10.80
2019-04-16T08:46:42.874Z,10.38
2019-04-16T08:48:49.409Z,10.32
2019-04-16T08:50:57.848Z,10.35
2019-04-16T08:53:01.755Z,10.65
2019-04-16T08:55:06.834Z,10.40
2019-04-16T08:57:11.845Z,10.28
2019-04-16T08:59:16.953Z,11.05
2019-04-16T09:01:26.325Z,10.55
2019-04-16T09:03:31.707Z,9.25
2019-04-16T09:05:41.240Z,10.20
2019-04-16T09:07:43.599Z,9.68
2019-04-16T09:09:57.027Z,9.35
2019-04-16T09:12:01.979Z,9.58
2019-04-16T09:14:07.095Z,9.83
2019-04-16T09:16:13.713Z,9.28
2019-04-16T09:18:26.307Z,9.55
2019-04-16T09:20:38.494Z,10.15
2019-04-16T09:22:49.153Z,9.05
2019-04-16T09:25:18.819Z,9.43
2019-04-16T09:27:35.488Z,9.10
2019-04-16T09:30:02.741Z,9.53
2019-04-16T09:32:24.565Z,9.10
2019-04-16T09:34:49.446Z,8.93
2019-04-16T09:37:19.710Z,8.70
2019-04-16T09:39:44.980Z,9.00
2019-04-16T09:41:51.643Z,9.10
2019-04-16T09:43:58.329Z,8.30
2019-04-16T09:46:10.288Z,8.40
2019-04-16T09:48:10.123Z,8.43
2019-04-16T09:50:15.270Z,8.25
2019-04-16T09:52:23.223Z,8.40
2019-04-16T09:54:27.004Z,8.18
2019-04-16T09:56:32.727Z,8.63
2019-04-16T09:58:42.340Z,8.43
2019-04-16T10:00:47.328Z,8.70
2019-04-16T10:02:55.021Z,8.28
2019-04-16T10:04:59.187Z,8.10
2019-04-16T10:07:05.145Z,8.55
2019-04-16T10:09:10.161Z,7.92
2019-04-16T10:11:18.384Z,7.75
2019-04-16T10:13:31.164Z,7.92
2019-04-16T10:15:29.094Z,7.90
2019-04-16T10:17:34.142Z,7.80
2019-04-16T10:19:42.954Z,7.67
2019-04-16T10:21:45.933Z,7.60
2019-04-16T10:23:59.422Z,7.83
2019-04-16T10:26:05.155Z,8.48
2019-04-16T10:28:16.851Z,7.55
2019-04-16T10:30:40.824Z,7.75
2019-04-16T10:32:46.261Z,7.08
2019-04-16T10:34:51.295Z,7.20
2019-04-16T10:36:56.276Z,7.05
2019-04-16T10:39:07.583Z,7.17
2019-04-16T10:41:16.424Z,7.55
2019-04-16T10:43:44.903Z,7.15
2019-04-16T10:45:58.447Z,6.97
2019-04-16T10:48:26.902Z,7.00
2019-04-16T10:50:53.649Z,6.58
2019-04-16T10:53:17.201Z,7.53
2019-04-16T10:55:28.093Z,6.67
2019-04-16T10:57:48.056Z,6.90
2019-04-16T11:00:17.958Z,6.70
2019-04-16T11:02:44.805Z,6.70
2019-04-16T11:05:20.062Z,6.83
2019-04-16T11:07:27.739Z,6.33
2019-04-16T11:09:34.337Z,6.58
2019-04-16T11:11:39.463Z,6.92
2019-04-16T11:13:58.923Z,6.17
2019-04-16T11:15:54.802Z,6.60
2019-04-16T11:18:00.342Z,6.83
2019-04-16T11:20:06.166Z,6.15
2019-04-16T11:22:12.268Z,6.03
2019-04-16T11:24:20.323Z,6.17
2019-04-16T11:26:23.964Z,6.33
2019-04-16T11:28:28.979Z,6.37
2019-04-16T11:30:39.967Z,7.30
2019-04-16T11:32:45.963Z,6.05
2019-04-16T11:34:51.006Z,6.72
2019-04-16T11:36:58.371Z,5.97
2019-04-16T11:39:02.701Z,6.00
2019-04-16T11:41:08.817Z,6.50
2019-04-16T11:43:13.829Z,6.00
2019-04-16T11:45:19.647Z,5.67
2019-04-16T11:47:27.904Z,5.83
2019-04-16T11:49:31.591Z,5.53
2019-04-16T11:51:36.669Z,5.97
2019-04-16T11:53:41.707Z,6.17
2019-04-16T11:55:46.714Z,5.90
2019-04-16T11:57:51.758Z,5.58
2019-04-16T12:00:06.396Z,5.80
2019-04-16T12:02:34.480Z,5.55
2019-04-16T12:04:59.623Z,5.30
2019-04-16T12:07:28.865Z,5.60
2019-04-16T12:09:53.211Z,5.58
2019-04-16T12:12:10.718Z,5.65
2019-04-16T12:14:43.806Z,4.97
2019-04-16T12:16:59.129Z,5.70
2019-04-16T12:19:30.027Z,4.70
2019-04-16T12:21:54.528Z,5.20
2019-04-16T12:24:20.454Z,5.28
2019-04-16T12:26:50.543Z,5.58
2019-04-16T12:29:04.029Z,5.58
2019-04-16T12:31:36.074Z,5.58
2019-04-16T12:33:52.861Z,5.70
2019-04-16T12:36:15.848Z,5.50
2019-04-16T12:38:27.444Z,5.58
2019-04-16T12:41:00.553Z,5.70
2019-04-16T12:43:27.808Z,5.85
2019-04-16T12:45:53.166Z,6.17
2019-04-16T12:48:02.247Z,5.28
2019-04-16T12:50:32.552Z,5.47
2019-04-16T12:53:11.635Z,6.15
2019-04-16T12:55:39.110Z,5.00
2019-04-16T12:57:49.598Z,5.92
2019-04-16T13:00:08.068Z,6.12
2019-04-16T13:02:41.957Z,5.83
2019-04-16T13:05:02.327Z,7.15
2019-04-16T13:07:27.440Z,6.08
2019-04-16T13:09:47.383Z,6.55
2019-04-16T13:11:58.620Z,5.85
2019-04-16T13:14:41.175Z,6.03
2019-04-16T13:17:09.070Z,6.12
2019-04-16T13:19:38.041Z,6.17
2019-04-16T13:21:48.632Z,6.20
2019-04-16T13:24:28.535Z,5.95
2019-04-16T13:26:46.682Z,5.85
2019-04-16T13:28:55.147Z,6.80
2019-04-16T13:30:59.967Z,6.05
2019-04-16T13:33:05.258Z,5.97
2019-04-16T13:35:10.715Z,5.83
2019-04-16T13:37:15.894Z,5.62
2019-04-16T13:39:40.729Z,5.17
2019-04-16T13:41:47.197Z,5.67
2019-04-16T13:44:07.943Z,5.35
2019-04-16T14:04:22.235Z,11.60
2019-04-16T14:06:27.384Z,15.45
2019-04-16T14:08:32.439Z,15.13
2019-04-16T14:10:37.941Z,14.10
2019-04-16T14:12:43.382Z,13.18
2019-04-16T14:14:50.237Z,15.13
2019-04-16T14:16:55.639Z,15.95
2019-04-16T14:19:02.547Z,15.18
2019-04-16T14:21:08.394Z,13.22
2019-04-16T14:23:13.774Z,12.18
2019-04-16T14:25:21.909Z,10.60
2019-04-16T14:27:30.679Z,10.88
2019-04-16T14:29:38.987Z,9.68
2019-04-16T14:31:46.110Z,7.87
2019-04-16T14:34:01.653Z,8.30
2019-04-16T14:36:08.070Z,8.15
2019-04-16T14:38:17.689Z,7.70
2019-04-16T14:40:23.488Z,6.72
2019-04-16T14:42:29.674Z,6.78
2019-04-16T14:44:46.197Z,6.08
2019-04-16T14:46:52.883Z,5.92
2019-04-16T14:48:58.158Z,6.40
2019-04-16T14:51:04.504Z,5.95
2019-04-16T14:53:10.116Z,5.87
2019-04-16T14:55:34.218Z,5.60
2019-04-16T14:57:58.289Z,5.17
2019-04-16T15:00:22.291Z,5.10
2019-04-16T15:02:45.955Z,5.47
2019-04-16T15:05:08.657Z,4.53
2019-04-16T15:07:34.664Z,4.80
2019-04-16T15:10:11.002Z,4.70
2019-04-16T15:12:22.049Z,4.75
2019-04-16T15:14:32.348Z,4.15
2019-04-16T15:16:50.793Z,4.17
2019-04-16T15:19:11.179Z,4.10
2019-04-16T15:21:43.223Z,3.98
2019-04-16T15:24:04.558Z,3.77
2019-04-16T15:26:34.857Z,3.92
2019-04-16T15:28:54.142Z,4.20
2019-04-16T15:31:09.949Z,3.87
2019-04-16T15:33:39.005Z,4.25
2019-04-16T15:35:48.188Z,3.77
2019-04-16T15:37:59.361Z,4.20
2019-04-16T15:40:08.567Z,4.47
2019-04-16T15:42:22.842Z,4.95
2019-04-16T15:44:38.927Z,6.78
2019-04-16T15:46:51.824Z,6.67
2019-04-16T15:49:23.280Z,11.40
2019-04-16T15:51:56.268Z,9.90
2019-04-16T15:54:11.435Z,10.03
2019-04-16T15:56:35.404Z,10.08
2019-04-16T15:59:03.766Z,9.63
2019-04-16T16:01:26.369Z,8.38
2019-04-16T16:03:49.204Z,8.10
2019-04-16T16:06:07.198Z,8.35
2019-04-16T16:08:37.268Z,11.48
2019-04-16T16:10:47.303Z,10.25
2019-04-16T16:12:53.622Z,13.80
2019-04-16T16:14:59.383Z,10.82
2019-04-16T16:17:05.090Z,11.20
2019-04-16T16:19:12.018Z,12.18
2019-04-16T16:21:16.954Z,14.43
2019-04-16T16:23:21.986Z,14.95
2019-04-16T16:25:27.035Z,13.38
2019-04-16T16:27:32.154Z,12.18
2019-04-16T16:29:37.415Z,12.00
2019-04-16T16:31:42.458Z,11.25
2019-04-16T16:33:47.537Z,10.48
2019-04-16T16:35:58.893Z,10.48
2019-04-16T16:37:59.375Z,10.68
2019-04-16T16:40:06.154Z,10.78
2019-04-16T16:42:23.803Z,10.68
2019-04-16T16:44:30.545Z,10.35
2019-04-16T16:47:06.720Z,10.55
2019-04-16T16:49:15.438Z,9.78
2019-04-16T16:51:23.165Z,10.38
2019-04-16T16:53:48.810Z,10.85
2019-04-16T16:55:58.987Z,9.73
2019-04-16T16:58:17.940Z,9.70
2019-04-16T17:00:56.400Z,9.38
2019-04-16T17:03:12.507Z,8.98
2019-04-16T17:05:36.560Z,9.28
2019-04-16T17:07:41.865Z,8.53
2019-04-16T17:09:46.918Z,8.65
2019-04-16T17:11:55.624Z,8.98
2019-04-16T17:14:01.659Z,9.10
2019-04-16T17:16:05.615Z,8.95
2019-04-16T17:18:10.793Z,8.90
2019-04-16T17:20:15.899Z,8.25
2019-04-16T17:22:29.321Z,8.13
2019-04-16T17:24:34.485Z,7.75
2019-04-16T17:26:39.532Z,8.30
2019-04-16T17:28:44.987Z,8.85
2019-04-16T17:30:50.428Z,7.42
2019-04-16T17:32:55.613Z,7.50
2019-04-16T17:35:00.743Z,8.15
2019-04-16T17:37:07.006Z,7.65
2019-04-16T17:39:13.332Z,7.03
2019-04-16T17:41:23.619Z,7.17
2019-04-16T17:44:00.666Z,7.20
2019-04-16T17:46:24.733Z,7.30
2019-04-16T17:48:45.198Z,7.58
2019-04-16T17:51:18.584Z,7.50
2019-04-16T17:53:41.455Z,6.80
2019-04-16T17:56:02.966Z,7.03
2019-04-16T17:58:15.047Z,7.20
2019-04-16T18:00:42.159Z,6.40
2019-04-16T18:03:05.343Z,6.35
2019-04-16T18:05:33.226Z,6.15
2019-04-16T18:07:57.184Z,5.85
2019-04-16T18:10:26.926Z,6.78
2019-04-16T18:12:40.437Z,6.65
2019-04-16T18:15:07.180Z,6.17
2019-04-16T18:17:28.766Z,5.83
2019-04-16T18:19:52.788Z,5.70
2019-04-16T18:22:06.789Z,5.37
2019-04-16T18:24:49.208Z,5.53
2019-04-16T18:27:31.675Z,5.47
2019-04-16T18:29:47.314Z,5.80
2019-04-16T18:32:11.254Z,5.10
2019-04-16T18:34:24.307Z,5.67
2019-04-16T18:36:39.144Z,5.50
2019-04-16T18:39:18.284Z,5.40
2019-04-16T18:41:34.772Z,6.10
2019-04-16T18:44:01.771Z,4.97
2019-04-16T18:46:18.353Z,4.90
2019-04-16T18:48:26.452Z,6.03
2019-04-16T18:50:32.166Z,5.08
2019-04-16T18:52:37.531Z,5.12
2019-04-16T18:54:42.739Z,5.70
2019-04-16T18:56:47.801Z,5.45
2019-04-16T18:58:52.938Z,5.50
2019-04-16T19:01:01.310Z,4.97
2019-04-16T19:03:06.712Z,5.30
2019-04-16T19:05:11.824Z,5.20
2019-04-16T19:07:16.948Z,5.22
2019-04-16T19:09:22.008Z,5.12
2019-04-16T19:11:27.076Z,4.70
2019-04-16T19:13:32.104Z,5.45
2019-04-16T19:15:37.207Z,5.22
2019-04-16T19:17:42.259Z,5.58
2019-04-16T19:19:47.366Z,5.22
2019-04-16T19:21:53.103Z,5.50
2019-04-16T19:23:58.549Z,5.58
2019-04-16T19:26:03.637Z,5.47
2019-04-16T19:28:08.707Z,5.72
2019-04-16T19:30:13.774Z,5.80
2019-04-16T19:32:18.835Z,5.67
2019-04-16T19:34:23.912Z,5.30
2019-04-16T19:36:29.027Z,5.97
2019-04-16T19:38:35.776Z,5.92
2019-04-16T19:40:40.783Z,5.85
2019-04-16T19:42:46.870Z,6.42
2019-04-16T19:44:52.024Z,5.80
2019-04-16T19:46:57.033Z,5.75
2019-04-16T19:49:02.065Z,5.60
2019-04-16T19:51:08.873Z,5.70
2019-04-16T19:53:15.117Z,6.40
2019-04-16T19:55:20.243Z,6.35
2019-04-16T19:57:25.293Z,6.10
2019-04-16T19:59:30.313Z,5.90
2019-04-16T20:01:35.356Z,5.97
2019-04-16T20:03:43.410Z,6.78
2019-04-16T20:05:47.178Z,6.25
2019-04-16T20:07:52.266Z,6.45
2019-04-16T20:09:57.306Z,6.40
2019-04-16T20:12:02.450Z,6.72
2019-04-16T20:14:07.553Z,6.00
2019-04-16T20:16:12.588Z,6.37
2019-04-16T20:18:19.244Z,6.45
2019-04-16T20:20:24.290Z,6.40
2019-04-16T20:22:30.252Z,6.67
2019-04-16T20:24:36.583Z,6.60
2019-04-16T20:26:41.627Z,6.28
2019-04-16T20:28:48.619Z,6.40
2019-04-16T20:31:00.466Z,7.10
2019-04-16T20:33:00.157Z,6.67
2019-04-16T20:35:05.384Z,6.05
2019-04-16T20:37:11.480Z,6.35
2019-04-16T20:39:16.493Z,6.72
2019-04-16T20:41:21.616Z,6.78
2019-04-16T20:43:26.631Z,6.60
2019-04-16T20:45:31.767Z,6.78
2019-04-16T20:47:39.979Z,7.05
2019-04-16T20:49:45.979Z,6.97
2019-04-16T20:51:50.731Z,7.30
2019-04-16T20:53:55.767Z,6.75
2019-04-16T20:56:00.859Z,7.35
2019-04-16T20:58:05.971Z,7.20
2019-04-16T21:00:12.775Z,6.60
2019-04-16T21:02:17.983Z,6.72
2019-04-16T21:04:23.013Z,6.72
2019-04-16T21:06:28.192Z,6.95
2019-04-16T21:08:33.206Z,6.65
2019-04-16T21:10:38.300Z,6.97
2019-04-16T21:12:45.368Z,6.33
2019-04-16T21:14:50.906Z,6.55
2019-04-16T21:16:56.849Z,7.33
2019-04-16T21:19:02.261Z,7.17
2019-04-16T21:21:08.264Z,6.50
2019-04-16T21:23:13.299Z,6.65
2019-04-16T21:25:18.336Z,7.28
2019-04-16T21:27:23.347Z,7.22
2019-04-16T21:29:34.394Z,7.08
2019-04-16T21:31:43.197Z,6.78
2019-04-16T21:34:00.025Z,6.90
2019-04-16T21:36:05.685Z,7.42
2019-04-16T21:38:29.619Z,6.53
2019-04-16T21:40:34.663Z,7.15
2019-04-16T21:42:39.682Z,6.92
2019-04-16T21:44:45.452Z,6.70
2019-04-16T21:46:52.359Z,6.60
2019-04-16T21:48:59.780Z,6.62
2019-04-16T21:51:05.470Z,6.87
2019-04-16T21:53:10.615Z,6.25
2019-04-16T21:55:15.651Z,6.47
2019-04-16T21:57:20.664Z,6.95
2019-04-16T21:59:25.695Z,6.67
2019-04-16T22:01:42.070Z,6.65
2019-04-16T22:03:51.129Z,6.10
2019-04-16T22:05:56.186Z,6.28
2019-04-16T22:08:01.207Z,6.20
2019-04-16T22:10:06.283Z,6.40
2019-04-16T22:12:15.242Z,6.45
2019-04-16T22:14:22.036Z,6.10
2019-04-16T22:16:26.704Z,6.25
2019-04-16T22:18:31.708Z,6.05
2019-04-16T22:20:36.770Z,6.65
2019-04-16T22:22:43.676Z,6.35
2019-04-16T22:24:48.680Z,6.60
2019-04-16T22:26:55.367Z,6.30
2019-04-16T22:29:00.401Z,6.53
2019-04-16T22:31:05.561Z,6.33
2019-04-16T22:33:10.599Z,6.47
2019-04-16T22:35:15.604Z,6.53
2019-04-16T22:37:20.646Z,5.75
2019-04-16T22:39:50.811Z,6.22
2019-04-16T22:42:03.354Z,7.05
2019-04-16T22:44:23.371Z,6.03
2019-04-16T22:46:32.043Z,5.95
2019-04-16T22:48:37.131Z,5.75
2019-04-16T22:50:42.173Z,5.72
2019-04-16T22:52:47.183Z,6.20
2019-04-16T22:54:53.029Z,6.00
2019-04-16T22:57:02.932Z,6.00
2019-04-16T22:59:08.868Z,6.03
2019-04-16T23:01:14.318Z,5.67
2019-04-16T23:03:20.343Z,6.15
2019-04-16T23:05:27.790Z,5.97
2019-04-16T23:07:32.368Z,6.55
2019-04-16T23:09:37.379Z,6.00
2019-04-16T23:11:42.411Z,6.00
2019-04-16T23:13:47.475Z,5.83
2019-04-16T23:15:52.532Z,5.62
2019-04-16T23:17:58.103Z,5.35
2019-04-16T23:20:03.405Z,6.50
2019-04-16T23:22:08.596Z,5.50
2019-04-16T23:24:14.716Z,5.90
2019-04-16T23:26:19.755Z,6.47
2019-04-16T23:28:25.118Z,5.60
2019-04-16T23:30:30.151Z,5.45
2019-04-16T23:32:35.160Z,5.47
2019-04-16T23:34:40.291Z,5.17
2019-04-16T23:36:48.793Z,5.97
2019-04-16T23:38:52.593Z,5.20
2019-04-16T23:40:57.672Z,5.50
2019-04-16T23:43:39.876Z,5.62
2019-04-16T23:46:12.900Z,6.12
2019-04-16T23:48:28.423Z,5.15
2019-04-16T23:50:45.283Z,5.37
2019-04-16T23:52:56.508Z,5.67
2019-04-16T23:55:07.764Z,5.85
2019-04-16T23:57:24.947Z,5.83
2019-04-16T23:59:54.984Z,5.53
